Time;durP1;ratioP1;P1;durP2;ratioP2;P2;SDS_P1;SDS_P2;PMS_P1;PMS_P2;Temp;Humidity;BMP_temperature;BMP_pressure;BME280_temperature;BME280_humidity;BME280_pressure;Samples;Min_cycle;Max_cycle;Signal;HPM_P1;HPM_P2
2022/04/07 00:00:52;;;;;;;8.90;3.70;;;;;7.70;96477.40;;;;110852;1251;41594;-71
2022/04/07 00:03:22;;;;;;;9.30;3.50;;;;;7.62;96472.60;;;;110946;1249;41715;-71
2022/04/07 00:05:53;;;;;;;8.40;3.30;;;;;7.60;96475.60;;;;111000;1251;41778;-71
2022/04/07 00:08:22;;;;;;;8.10;3.40;;;;;7.50;96465.20;;;;110931;1251;41141;-72
2022/04/07 00:10:52;;;;;;;8.80;3.70;;;;;7.50;96456.40;;;;110951;1250;41154;-71
2022/04/07 00:13:22;;;;;;;9.50;4.40;;;;;7.50;96443.20;;;;110633;1252;41167;-71
2022/04/07 00:15:53;;;;;;;;;;;;;7.50;96436.80;;;;110988;1251;41147;-71
2022/04/07 00:18:22;;;;;;;12.70;5.10;;;;;7.40;96433.00;;;;110916;1250;41135;-72
2022/04/07 00:20:52;;;;;;;9.90;4.70;;;;;7.30;96439.00;;;;110923;1249;41272;-71
2022/04/07 00:23:23;;;;;;;11.90;4.70;;;;;7.30;96431.60;;;;110892;1249;41278;-71
2022/04/07 00:25:53;;;;;;;11.80;4.80;;;;;7.28;96437.20;;;;110908;1250;41150;-71
2022/04/07 00:28:23;;;;;;;9.10;4.30;;;;;7.20;96432.80;;;;110926;1249;41134;-71
2022/04/07 00:30:52;;;;;;;10.10;4.40;;;;;7.10;96423.80;;;;110921;1249;41274;-72
2022/04/07 00:33:22;;;;;;;10.50;4.80;;;;;7.10;96418.20;;;;110708;1252;41846;-72
2022/04/07 00:35:53;;;;;;;9.30;4.00;;;;;7.00;96414.60;;;;110922;1249;41141;-72
2022/04/07 00:38:23;;;;;;;9.40;4.00;;;;;7.00;96414.40;;;;111030;1249;41134;-71
2022/04/07 00:40:53;;;;;;;10.10;4.20;;;;;6.90;96409.40;;;;110931;1250;42067;-71
2022/04/07 00:43:41;;;;;;;8.40;3.70;;;;;6.90;96400.60;;;;110926;1249;42372;-70
2022/04/07 00:46:11;;;;;;;8.90;3.20;;;;;6.82;96405.80;;;;110951;1249;41153;-72
2022/04/07 00:48:41;;;;;;;7.70;3.30;;;;;6.80;96406.60;;;;110779;1249;41266;-72
2022/04/07 00:51:11;;;;;;;11.80;3.30;;;;;6.80;96401.40;;;;110878;1251;41156;-72
2022/04/07 00:53:40;;;;;;;7.60;3.10;;;;;6.80;96403.80;;;;110907;1250;41150;-71
2022/04/07 00:56:11;;;;;;;9.80;3.90;;;;;6.80;96404.20;;;;110733;1250;41135;-71
2022/04/07 00:58:40;;;;;;;8.30;3.80;;;;;6.80;96398.00;;;;110893;1250;42381;-72
2022/04/07 01:01:10;;;;;;;9.40;3.40;;;;;6.70;96394.40;;;;110726;1250;41128;-71
2022/04/07 01:03:41;;;;;;;6.60;3.10;;;;;6.60;96399.00;;;;110723;1252;41722;-70
2022/04/07 01:06:10;;;;;;;11.30;3.80;;;;;6.50;96394.20;;;;110916;1251;42122;-71
2022/04/07 01:08:40;;;;;;;7.90;3.50;;;;;6.50;96391.20;;;;110924;1250;42422;-71
2022/04/07 01:11:10;;;;;;;9.50;4.20;;;;;6.40;96393.40;;;;110892;1251;41314;-71
2022/04/07 01:13:50;;;;;;;10.60;3.90;;;;;6.30;96391.40;;;;110736;1251;42396;-72
2022/04/07 01:16:21;;;;;;;10.60;4.70;;;;;6.20;96387.20;;;;110762;1251;41513;-72
2022/04/07 01:18:51;;;;;;;8.40;3.60;;;;;6.10;96384.40;;;;110697;1252;41602;-72
2022/04/07 01:21:21;;;;;;;8.90;3.80;;;;;6.00;96380.00;;;;110655;1252;41970;-72
2022/04/07 01:24:05;;;;;;;8.30;3.40;;;;;6.00;96380.00;;;;110829;1252;41266;-72
2022/04/07 01:26:38;;;;;;;7.80;3.10;;;;;6.00;96373.20;;;;110690;1252;42062;-73
2022/04/07 01:29:10;;;;;;;8.50;3.40;;;;;5.94;96370.40;;;;110906;1252;40758;-72
2022/04/07 01:31:42;;;;;;;8.00;3.40;;;;;5.98;96366.00;;;;110852;1249;42180;-73
2022/04/07 01:34:14;;;;;;;8.00;3.30;;;;;6.00;96363.80;;;;110835;1250;41161;-72
2022/04/07 01:36:47;;;;;;;7.50;3.10;;;;;6.00;96361.40;;;;110875;1249;41920;-72
2022/04/07 01:39:21;;;;;;;8.60;3.20;;;;;6.00;96357.80;;;;110900;1249;41511;-70
2022/04/07 01:41:52;;;;;;;8.70;3.20;;;;;6.00;96355.40;;;;110810;1252;41155;-73
2022/04/07 01:44:23;;;;;;;9.90;4.20;;;;;6.06;96358.20;;;;110760;1252;41266;-72
2022/04/07 01:46:52;;;;;;;10.00;3.80;;;;;6.10;96358.00;;;;110626;1252;41846;-72
2022/04/07 01:49:22;;;;;;;10.70;4.50;;;;;6.10;96358.20;;;;110783;1252;41424;-73
2022/04/07 01:51:51;;;;;;;9.70;3.80;;;;;5.90;96358.60;;;;110581;1252;41193;-70
2022/04/07 01:54:21;;;;;;;9.90;4.10;;;;;5.82;96358.40;;;;110801;1251;41721;-70
2022/04/07 01:56:51;;;;;;;10.00;4.30;;;;;5.80;96358.20;;;;110701;1252;41160;-71
2022/04/07 01:59:21;;;;;;;11.20;4.70;;;;;5.80;96359.00;;;;110835;1252;41258;-71
2022/04/07 02:01:51;;;;;;;11.50;5.20;;;;;5.80;96356.00;;;;110897;1249;41908;-71
2022/04/07 02:04:21;;;;;;;12.20;5.60;;;;;5.80;96350.00;;;;110903;1249;41752;-71
2022/04/07 02:06:51;;;;;;;12.60;5.70;;;;;5.78;96343.60;;;;110807;1251;41164;-71
2022/04/07 02:09:20;;;;;;;10.50;4.80;;;;;5.78;96342.60;;;;110730;1252;41978;-71
2022/04/07 02:11:49;;;;;;;10.20;4.80;;;;;5.78;96334.80;;;;110770;1252;42206;-71
2022/04/07 02:14:19;;;;;;;11.70;4.50;;;;;5.70;96330.20;;;;110668;1252;41600;-71
2022/04/07 02:16:48;;;;;;;11.00;4.60;;;;;5.70;96331.20;;;;110820;1251;41139;-71
2022/04/07 02:19:17;;;;;;;10.80;4.10;;;;;5.70;96337.40;;;;110958;1251;41588;-71
2022/04/07 02:21:47;;;;;;;12.40;4.00;;;;;5.70;96332.00;;;;110902;1250;41134;-71
2022/04/07 02:24:17;;;;;;;11.90;4.60;;;;;5.70;96325.00;;;;110897;1251;42332;-69
2022/04/07 02:26:46;;;;;;;9.90;4.10;;;;;5.70;96321.80;;;;110837;1252;41170;-71
2022/04/07 02:29:16;;;;;;;8.50;3.90;;;;;5.70;96316.40;;;;110754;1250;41146;-71
2022/04/07 02:31:45;;;;;;;10.10;4.70;;;;;5.70;96310.20;;;;110829;1252;41325;-71
2022/04/07 02:34:14;;;;;;;12.50;5.20;;;;;5.70;96307.20;;;;110916;1250;42358;-72
2022/04/07 02:36:45;;;;;;;9.80;5.00;;;;;5.70;96305.80;;;;110693;1253;41271;-71
2022/04/07 02:39:14;;;;;;;11.30;4.40;;;;;5.70;96307.80;;;;110787;1251;41410;-70
2022/04/07 02:41:43;;;;;;;7.70;3.40;;;;;5.70;96305.80;;;;110824;1250;41289;-72
2022/04/07 02:44:13;;;;;;;8.90;4.10;;;;;5.70;96309.20;;;;110891;1253;41395;-71
2022/04/07 02:46:44;;;;;;;8.80;3.50;;;;;5.70;96304.40;;;;110897;1250;41619;-71
2022/04/07 02:49:14;;;;;;;11.30;4.30;;;;;5.64;96295.40;;;;110918;1250;41588;-72
2022/04/07 02:51:46;;;;;;;11.70;5.10;;;;;5.60;96287.00;;;;110685;1253;41499;-71
2022/04/07 02:54:16;;;;;;;11.70;4.80;;;;;5.60;96287.80;;;;110748;1251;41267;-71
2022/04/07 02:56:46;;;;;;;10.40;3.90;;;;;5.60;96284.40;;;;110777;1250;41178;-71
2022/04/07 02:59:16;;;;;;;13.70;5.20;;;;;5.60;96284.40;;;;110542;1253;41142;-72
2022/04/07 03:01:45;;;;;;;11.20;4.90;;;;;5.50;96283.60;;;;110766;1253;41610;-71
2022/04/07 03:04:15;;;;;;;10.30;4.60;;;;;5.48;96281.80;;;;110880;1250;41853;-71
2022/04/07 03:06:45;;;;;;;14.60;4.80;;;;;5.40;96285.40;;;;110666;1252;41609;-71
2022/04/07 03:09:15;;;;;;;10.00;4.10;;;;;5.40;96289.20;;;;110835;1250;41261;-72
2022/04/07 03:11:46;;;;;;;10.80;4.50;;;;;5.32;96288.60;;;;110823;1252;41839;-72
2022/04/07 03:14:16;;;;;;;11.30;4.40;;;;;5.30;96284.60;;;;110670;1252;42116;-71
2022/04/07 03:16:48;;;;;;;11.80;4.30;;;;;5.30;96288.20;;;;110854;1249;41952;-72
2022/04/07 03:19:17;;;;;;;11.60;5.60;;;;;5.30;96288.60;;;;110720;1252;41197;-71
2022/04/07 03:21:47;;;;;;;8.80;4.10;;;;;5.30;96283.60;;;;110941;1249;41144;-72
2022/04/07 03:24:16;;;;;;;9.30;4.20;;;;;5.30;96288.40;;;;110687;1252;41222;-70
2022/04/07 03:27:08;;;;;;;10.30;4.00;;;;;5.30;96279.00;;;;110726;1250;41446;-71
2022/04/07 03:29:38;;;;;;;8.30;3.70;;;;;5.30;96274.00;;;;110767;1250;41178;-72
2022/04/07 03:32:08;;;;;;;8.80;3.80;;;;;5.20;96261.60;;;;110703;1252;41251;-71
2022/04/07 03:34:37;;;;;;;8.50;3.70;;;;;5.20;96257.00;;;;110709;1252;41161;-72
2022/04/07 03:37:07;;;;;;;10.70;4.70;;;;;5.20;96253.00;;;;110921;1248;41905;-72
2022/04/07 03:39:36;;;;;;;13.40;4.80;;;;;5.20;96250.40;;;;110729;1252;41149;-72
2022/04/07 03:42:06;;;;;;;12.80;4.70;;;;;5.20;96247.80;;;;110794;1252;41158;-72
2022/04/07 03:44:35;;;;;;;9.60;4.80;;;;;5.20;96247.20;;;;110795;1252;41130;-71
2022/04/07 03:47:04;;;;;;;11.70;4.30;;;;;5.16;96248.20;;;;110799;1250;41201;-72
2022/04/07 03:49:34;;;;;;;10.50;5.00;;;;;5.18;96247.40;;;;110813;1251;42401;-73
2022/04/07 03:52:04;;;;;;;10.80;4.60;;;;;5.20;96235.20;;;;111002;1249;42383;-73
2022/04/07 03:54:34;;;;;;;10.30;5.00;;;;;5.20;96224.60;;;;111036;1249;41425;-71
2022/04/07 03:57:03;;;;;;;9.60;4.40;;;;;5.20;96229.80;;;;110650;1252;41907;-72
2022/04/07 03:59:38;;;;;;;10.70;5.20;;;;;5.20;96225.80;;;;110809;1251;41307;-71
2022/04/07 04:02:08;;;;;;;10.00;4.20;;;;;5.20;96215.80;;;;110882;1251;41618;-71
2022/04/07 04:04:37;;;;;;;10.30;4.70;;;;;5.20;96210.80;;;;110939;1250;41332;-72
2022/04/07 04:07:06;;;;;;;11.60;4.80;;;;;5.20;96212.20;;;;110870;1250;41196;-70
2022/04/07 04:09:35;;;;;;;10.70;5.00;;;;;5.22;96208.40;;;;110791;1252;41148;-72
2022/04/07 04:12:05;;;;;;;9.00;4.20;;;;;5.30;96203.00;;;;110812;1250;41891;-71
2022/04/07 04:14:34;;;;;;;9.80;4.10;;;;;5.30;96194.40;;;;110938;1249;41205;-71
2022/04/07 04:17:04;;;;;;;13.40;4.60;;;;;5.30;96183.00;;;;110747;1252;42473;-72
2022/04/07 04:19:33;;;;;;;10.20;4.70;;;;;5.40;96180.80;;;;110863;1252;41162;-71
2022/04/07 04:22:03;;;;;;;8.80;4.00;;;;;5.46;96171.00;;;;110912;1249;42401;-71
2022/04/07 04:24:32;;;;;;;9.80;3.70;;;;;5.50;96170.00;;;;110682;1251;41262;-71
2022/04/07 04:27:01;;;;;;;9.70;4.50;;;;;5.60;96169.80;;;;110760;1251;41176;-71
2022/04/07 04:29:31;;;;;;;9.20;4.00;;;;;5.70;96168.40;;;;110818;1250;41204;-71
2022/04/07 04:32:00;;;;;;;10.80;3.90;;;;;5.86;96168.60;;;;110841;1251;41375;-70
2022/04/07 04:34:29;;;;;;;9.80;4.10;;;;;5.98;96164.60;;;;110797;1251;41265;-71
2022/04/07 04:36:58;;;;;;;10.20;5.00;;;;;6.10;96162.40;;;;110798;1252;41619;-70
2022/04/07 04:39:38;;;;;;;11.30;4.50;;;;;6.20;96162.00;;;;110730;1252;41255;-71
2022/04/07 04:42:13;;;;;;;11.60;5.60;;;;;6.30;96161.60;;;;110917;1249;41139;-71
2022/04/07 04:44:47;;;;;;;10.50;5.10;;;;;6.36;96148.40;;;;110803;1252;41150;-71
2022/04/07 04:47:19;;;;;;;9.80;4.50;;;;;6.46;96144.40;;;;110935;1249;42200;-71
2022/04/07 04:49:48;;;;;;;10.30;4.10;;;;;6.50;96145.00;;;;110888;1250;41179;-71
2022/04/07 04:52:17;;;;;;;8.80;3.60;;;;;6.60;96150.60;;;;110873;1251;41259;-71
2022/04/07 04:54:46;;;;;;;8.70;3.70;;;;;6.70;96145.40;;;;110742;1250;41188;-71
2022/04/07 04:57:16;;;;;;;12.40;5.40;;;;;6.80;96146.40;;;;110677;1252;41154;-70
2022/04/07 04:59:45;;;;;;;14.90;6.60;;;;;6.80;96133.00;;;;110854;1249;41495;-71
2022/04/07 05:02:13;;;;;;;14.60;6.00;;;;;6.90;96129.60;;;;110790;1249;41143;-71
2022/04/07 05:04:46;;;;;;;13.40;5.40;;;;;6.92;96118.80;;;;110733;1252;41383;-71
2022/04/07 05:07:15;;;;;;;11.20;4.70;;;;;7.00;96114.20;;;;110845;1250;42689;-70
2022/04/07 05:09:45;;;;;;;13.40;6.00;;;;;7.08;96118.60;;;;110881;1249;41893;-71
2022/04/07 05:12:14;;;;;;;20.00;7.10;;;;;7.14;96117.80;;;;110756;1252;41140;-71
2022/04/07 05:14:43;;;;;;;12.20;5.80;;;;;7.14;96112.40;;;;110858;1252;41260;-71
2022/04/07 05:17:12;;;;;;;11.60;5.10;;;;;7.20;96112.80;;;;110893;1249;41589;-71
2022/04/07 05:19:44;;;;;;;14.40;5.30;;;;;7.30;96107.00;;;;110936;1250;41532;-71
2022/04/07 05:22:14;;;;;;;15.80;6.80;;;;;7.38;96105.20;;;;110690;1252;41491;-71
2022/04/07 05:24:43;;;;;;;12.70;6.40;;;;;7.40;96104.20;;;;110801;1252;41157;-71
2022/04/07 05:27:12;;;;;;;11.00;5.20;;;;;7.40;96098.80;;;;110734;1252;41606;-71
2022/04/07 05:29:41;;;;;;;13.90;5.50;;;;;7.46;96096.60;;;;110844;1249;41614;-71
2022/04/07 05:32:10;;;;;;;14.40;6.70;;;;;7.50;96092.20;;;;110717;1252;41159;-71
2022/04/07 05:34:39;;;;;;;13.60;6.20;;;;;7.54;96097.20;;;;110718;1252;41378;-71
2022/04/07 05:37:08;;;;;;;18.00;7.30;;;;;7.60;96098.00;;;;110902;1250;41891;-70
2022/04/07 05:39:37;;;;;;;14.80;6.50;;;;;7.60;96098.40;;;;110670;1252;41149;-72
2022/04/07 05:42:06;;;;;;;14.00;5.80;;;;;7.60;96093.20;;;;110773;1251;41604;-70
2022/04/07 05:44:35;;;;;;;12.80;6.00;;;;;7.70;96090.60;;;;110911;1252;41944;-71
2022/04/07 05:47:04;;;;;;;13.50;6.10;;;;;7.72;96083.40;;;;110711;1252;42818;-72
2022/04/07 05:49:33;;;;;;;11.30;5.50;;;;;7.80;96077.00;;;;110706;1251;41271;-71
2022/04/07 05:52:04;;;;;;;13.30;6.40;;;;;7.90;96080.40;;;;110915;1249;41142;-72
2022/04/07 05:54:37;;;;;;;16.40;7.90;;;;;8.00;96079.40;;;;110904;1250;40732;-71
2022/04/07 05:57:07;;;;;;;15.30;7.30;;;;;8.10;96075.00;;;;110808;1250;41479;-71
2022/04/07 05:59:36;;;;;;;17.90;7.30;;;;;8.10;96071.60;;;;110907;1250;41131;-71
2022/04/07 06:02:05;;;;;;;15.60;7.60;;;;;8.10;96068.60;;;;110674;1253;42386;-71
2022/04/07 06:04:38;;;;;;;15.30;7.10;;;;;8.10;96067.80;;;;110743;1251;41601;-71
2022/04/07 06:07:08;;;;;;;16.50;7.00;;;;;8.20;96068.60;;;;110760;1251;41412;-71
2022/04/07 06:09:37;;;;;;;14.00;6.80;;;;;8.28;96068.40;;;;110773;1252;41149;-71
2022/04/07 06:12:08;;;;;;;13.50;6.60;;;;;8.40;96065.40;;;;110701;1252;42569;-71
2022/04/07 06:14:37;;;;;;;14.50;6.80;;;;;8.50;96061.40;;;;110670;1253;41221;-71
2022/04/07 06:17:06;;;;;;;15.10;7.00;;;;;8.60;96059.00;;;;110680;1252;41148;-71
2022/04/07 06:19:35;;;;;;;14.40;6.70;;;;;8.70;96051.80;;;;110689;1252;41729;-66
2022/04/07 06:22:07;;;;;;;12.80;5.60;;;;;8.80;96043.60;;;;110766;1252;41642;-68
2022/04/07 06:24:36;;;;;;;13.00;6.10;;;;;8.98;96043.60;;;;110637;1252;41148;-72
2022/04/07 06:27:05;;;;;;;15.90;5.70;;;;;9.10;96042.20;;;;110483;1253;308788;-71
2022/04/07 06:29:34;;;;;;;16.10;7.40;;;;;9.20;96039.60;;;;110765;1252;41164;-69
2022/04/07 06:32:03;;;;;;;14.60;6.30;;;;;9.20;96037.00;;;;110894;1250;41179;-69
2022/04/07 06:34:33;;;;;;;13.50;6.20;;;;;9.20;96034.60;;;;110785;1252;41161;-70
2022/04/07 06:37:02;;;;;;;15.20;5.70;;;;;9.30;96029.80;;;;110885;1252;41161;-71
2022/04/07 06:39:31;;;;;;;15.80;5.40;;;;;9.48;96026.20;;;;110678;1253;41162;-72
2022/04/07 06:42:00;;;;;;;11.80;5.60;;;;;9.62;96023.80;;;;110737;1251;41265;-71
2022/04/07 06:44:29;;;;;;;16.60;7.10;;;;;9.80;96022.20;;;;110720;1253;41289;-71
2022/04/07 06:46:58;;;;;;;12.60;6.40;;;;;9.90;96022.20;;;;110677;1252;41164;-71
2022/04/07 06:49:27;;;;;;;12.80;6.10;;;;;10.06;96018.60;;;;110846;1251;41145;-71
2022/04/07 06:52:02;;;;;;;13.60;6.10;;;;;10.20;96017.00;;;;110853;1250;41258;-71
2022/04/07 06:54:32;;;;;;;14.80;6.20;;;;;10.40;96017.00;;;;110719;1252;41263;-71
2022/04/07 06:57:01;;;;;;;13.80;7.10;;;;;10.60;96018.80;;;;110641;1252;41618;-70
2022/04/07 06:59:29;;;;;;;14.80;6.20;;;;;10.74;96010.20;;;;110749;1253;41292;-70
2022/04/07 07:01:58;;;;;;;13.40;5.90;;;;;10.90;96008.20;;;;110675;1252;40945;-72
2022/04/07 07:04:27;;;;;;;15.10;6.40;;;;;11.04;96006.00;;;;110784;1252;41129;-70
2022/04/07 07:06:56;;;;;;;13.50;5.50;;;;;11.14;96005.00;;;;110776;1251;42361;-71
2022/04/07 07:09:25;;;;;;;12.20;5.30;;;;;11.20;96002.80;;;;110875;1251;41359;-71
2022/04/07 07:11:54;;;;;;;10.90;5.00;;;;;11.32;95994.80;;;;110694;1253;42048;-71
2022/04/07 07:14:23;;;;;;;12.10;5.00;;;;;11.50;95994.00;;;;110885;1252;42312;-71
2022/04/07 07:16:52;;;;;;;11.50;5.10;;;;;11.60;95991.40;;;;110907;1249;41391;-71
2022/04/07 07:19:26;;;;;;;11.30;5.00;;;;;11.70;95985.60;;;;110744;1251;42172;-71
2022/04/07 07:21:56;;;;;;;12.80;5.40;;;;;11.80;95986.20;;;;110862;1252;41762;-68
2022/04/07 07:24:25;;;;;;;10.40;4.80;;;;;11.98;95985.00;;;;110715;1252;41813;-70
2022/04/07 07:26:54;;;;;;;13.00;5.10;;;;;12.10;95980.00;;;;110728;1252;42302;-71
2022/04/07 07:29:23;;;;;;;11.20;4.90;;;;;12.26;95977.40;;;;110829;1253;42694;-70
2022/04/07 07:31:52;;;;;;;10.50;4.60;;;;;12.40;95975.00;;;;110770;1252;41128;-71
2022/04/07 07:34:20;;;;;;;10.90;4.50;;;;;12.60;95974.00;;;;110600;1252;41172;-70
2022/04/07 07:36:49;;;;;;;11.90;5.20;;;;;12.74;95974.00;;;;110587;1254;41405;-69
2022/04/07 07:39:19;;;;;;;9.50;4.10;;;;;12.90;95973.60;;;;110726;1252;41172;-69
2022/04/07 07:41:48;;;;;;;16.30;6.20;;;;;13.00;95968.60;;;;110658;1252;41727;-69
2022/04/07 07:44:18;;;;;;;11.00;4.70;;;;;13.10;95965.80;;;;110737;1252;41278;-71
2022/04/07 07:46:46;;;;;;;11.40;4.80;;;;;13.10;95960.40;;;;110837;1252;41873;-69
2022/04/07 07:49:15;;;;;;;15.60;4.80;;;;;13.20;95963.40;;;;110821;1253;41171;-69
2022/04/07 07:51:44;;;;;;;11.90;5.30;;;;;13.30;95960.60;;;;110832;1250;41147;-70
2022/04/07 07:54:13;;;;;;;11.70;5.10;;;;;13.40;95957.40;;;;110807;1252;41153;-70
2022/04/07 07:56:42;;;;;;;14.90;6.20;;;;;13.44;95954.40;;;;110619;1253;41152;-69
2022/04/07 07:59:11;;;;;;;13.00;5.90;;;;;13.46;95947.20;;;;110629;1252;41149;-69
2022/04/07 08:01:40;;;;;;;12.10;5.30;;;;;13.44;95947.40;;;;110596;1252;41165;-70
2022/04/07 08:04:09;;;;;;;12.70;5.00;;;;;13.50;95945.60;;;;110715;1253;41205;-70
2022/04/07 08:06:39;;;;;;;13.50;5.20;;;;;13.60;95949.00;;;;110598;1254;41144;-70
2022/04/07 08:09:13;;;;;;;14.30;5.10;;;;;13.70;95942.40;;;;110628;1252;41127;-71
2022/04/07 08:11:43;;;;;;;21.80;7.50;;;;;13.80;95938.00;;;;110638;1254;41151;-70
2022/04/07 08:14:12;;;;;;;21.50;7.30;;;;;13.80;95936.00;;;;110675;1252;41669;-71
2022/04/07 08:16:41;;;;;;;18.10;8.00;;;;;13.80;95932.80;;;;110608;1252;41173;-70
2022/04/07 08:19:10;;;;;;;19.00;7.20;;;;;13.70;95932.40;;;;110687;1252;41736;-69
2022/04/07 08:21:39;;;;;;;14.70;6.70;;;;;13.70;95930.00;;;;110721;1252;42583;-70
2022/04/07 08:24:08;;;;;;;15.40;7.10;;;;;13.70;95925.20;;;;110652;1253;41143;-70
2022/04/07 08:26:37;;;;;;;17.30;8.00;;;;;13.80;95921.80;;;;110655;1252;41270;-69
2022/04/07 08:29:06;;;;;;;15.90;7.70;;;;;13.90;95917.40;;;;110874;1252;41160;-70
2022/04/07 08:31:36;;;;;;;22.10;8.50;;;;;13.90;95913.60;;;;110724;1252;41194;-71
2022/04/07 08:34:05;;;;;;;17.20;8.40;;;;;14.00;95914.60;;;;110750;1251;41467;-71
2022/04/07 08:36:37;;;;;;;16.70;7.80;;;;;14.10;95907.40;;;;110659;1253;42565;-70
2022/04/07 08:39:06;;;;;;;14.80;6.10;;;;;14.30;95903.20;;;;110671;1253;41176;-70
2022/04/07 08:41:37;;;;;;;12.70;5.70;;;;;14.50;95897.60;;;;110646;1253;41161;-70
2022/04/07 08:44:06;;;;;;;12.60;5.00;;;;;14.70;95889.20;;;;110568;1252;41525;-69
2022/04/07 08:46:35;;;;;;;15.30;6.30;;;;;14.96;95883.80;;;;110769;1251;41938;-70
2022/04/07 08:49:06;;;;;;;15.80;6.20;;;;;15.20;95881.00;;;;110729;1251;41269;-70
2022/04/07 08:51:35;;;;;;;15.90;6.30;;;;;15.40;95878.20;;;;110683;1252;41161;-70
2022/04/07 08:54:04;;;;;;;11.80;4.20;;;;;15.60;95872.00;;;;110675;1253;41945;-70
2022/04/07 08:56:34;;;;;;;11.80;3.90;;;;;15.86;95867.20;;;;110685;1251;41840;-69
2022/04/07 08:59:02;;;;;;;9.60;4.30;;;;;16.08;95859.60;;;;110657;1253;41160;-70
2022/04/07 09:01:31;;;;;;;9.30;3.30;;;;;16.28;95854.00;;;;110749;1252;41621;-70
2022/04/07 09:04:00;;;;;;;8.80;3.40;;;;;16.42;95855.20;;;;110673;1253;42520;-70
2022/04/07 09:06:33;;;;;;;9.20;3.70;;;;;16.60;95849.80;;;;110740;1252;41160;-71
2022/04/07 09:09:22;;;;;;;17.70;5.00;;;;;16.76;95847.60;;;;110521;1252;41148;-69
2022/04/07 09:11:55;;;;;;;16.70;7.60;;;;;16.96;95841.80;;;;110776;1252;42208;-70
2022/04/07 09:14:24;;;;;;;14.00;6.20;;;;;17.00;95836.60;;;;110733;1253;41177;-71
2022/04/07 09:16:54;;;;;;;19.90;8.20;;;;;17.20;95832.40;;;;110737;1251;41133;-70
2022/04/07 09:19:24;;;;;;;19.90;7.70;;;;;17.20;95833.80;;;;110812;1251;41146;-70
2022/04/07 09:22:07;;;;;;;17.60;7.90;;;;;17.14;95833.80;;;;110690;1252;41153;-70
2022/04/07 09:24:37;;;;;;;16.80;6.80;;;;;17.30;95833.20;;;;110904;1251;41156;-70
2022/04/07 09:27:11;;;;;;;12.30;4.90;;;;;17.50;95834.40;;;;110753;1250;41185;-70
2022/04/07 09:29:45;;;;;;;14.30;5.20;;;;;17.74;95835.60;;;;110759;1251;41144;-70
2022/04/07 09:32:19;;;;;;;12.20;5.20;;;;;17.80;95834.00;;;;110596;1253;41159;-70
2022/04/07 09:34:55;;;;;;;10.00;4.50;;;;;17.80;95829.60;;;;110686;1252;41192;-70
2022/04/07 09:37:26;;;;;;;13.50;4.90;;;;;17.72;95829.40;;;;110970;1251;41120;-70
2022/04/07 09:40:06;;;;;;;11.40;5.20;;;;;17.56;95831.80;;;;110791;1253;41169;-70
2022/04/07 09:42:35;;;;;;;10.30;4.90;;;;;17.40;95830.60;;;;110749;1251;41353;-69
2022/04/07 09:45:07;;;;;;;11.30;5.20;;;;;17.30;95828.80;;;;110940;1251;41290;-69
2022/04/07 09:47:41;;;;;;;12.50;5.80;;;;;17.20;95830.80;;;;110929;1251;42335;-70
2022/04/07 09:50:31;;;;;;;11.30;5.20;;;;;17.22;95831.00;;;;110798;1252;41266;-70
2022/04/07 09:53:03;;;;;;;10.30;4.60;;;;;17.40;95825.60;;;;110709;1253;41262;-68
2022/04/07 09:55:35;;;;;;;8.70;4.20;;;;;17.46;95815.20;;;;110649;1254;41182;-69
2022/04/07 09:58:07;;;;;;;8.90;3.60;;;;;17.40;95801.20;;;;110815;1252;41611;-71
2022/04/07 10:00:36;;;;;;;10.60;4.50;;;;;17.50;95789.20;;;;110804;1251;41269;-69
2022/04/07 10:03:08;;;;;;;11.30;4.20;;;;;17.50;95790.40;;;;110792;1251;40922;-69
2022/04/07 10:05:38;;;;;;;8.80;3.60;;;;;17.60;95792.20;;;;110807;1252;41173;-71
2022/04/07 10:08:07;;;;;;;8.80;3.80;;;;;17.60;95783.40;;;;110554;1254;41888;-72
2022/04/07 10:10:37;;;;;;;11.00;4.00;;;;;17.50;95781.00;;;;110547;1254;42999;-72
2022/04/07 10:13:06;;;;;;;11.80;4.60;;;;;17.50;95780.40;;;;110894;1251;41156;-69
2022/04/07 10:15:38;;;;;;;11.30;3.90;;;;;17.30;95780.80;;;;110735;1252;41166;-70
2022/04/07 10:18:17;;;;;;;9.70;4.30;;;;;17.18;95776.80;;;;110679;1254;41187;-70
2022/04/07 10:20:48;;;;;;;9.40;3.80;;;;;17.06;95777.20;;;;110757;1252;41171;-70
2022/04/07 10:23:46;;;;;;;13.80;3.90;;;;;17.02;95774.00;;;;110709;1251;41288;-71
2022/04/07 10:26:15;;;;;;;8.90;3.50;;;;;17.00;95775.80;;;;110765;1251;41239;-69
2022/04/07 10:28:58;;;;;;;9.60;3.60;;;;;17.02;95769.80;;;;110640;1252;41144;-70
2022/04/07 10:31:29;;;;;;;10.50;4.00;;;;;17.08;95770.20;;;;110689;1254;41775;-70
2022/04/07 10:34:08;;;;;;;9.20;3.30;;;;;17.00;95765.40;;;;110695;1252;41913;-72
2022/04/07 10:36:39;;;;;;;8.80;3.60;;;;;17.00;95765.00;;;;110723;1252;41840;-70
2022/04/07 10:39:15;;;;;;;10.30;4.20;;;;;17.00;95768.60;;;;110710;1251;41767;-71
2022/04/07 10:41:49;;;;;;;9.40;3.70;;;;;17.00;95769.40;;;;110717;1251;41296;-71
2022/04/07 10:44:19;;;;;;;11.10;4.10;;;;;17.00;95765.60;;;;110709;1250;41372;-71
2022/04/07 10:46:48;;;;;;;11.00;4.40;;;;;16.90;95766.00;;;;110691;1253;41375;-69
2022/04/07 10:49:24;;;;;;;9.70;4.00;;;;;16.78;95766.80;;;;110653;1253;41276;-71
2022/04/07 10:51:54;;;;;;;11.00;4.80;;;;;16.62;95763.20;;;;110751;1252;41188;-71
2022/04/07 10:54:26;;;;;;;10.10;4.80;;;;;16.50;95765.00;;;;110800;1252;41313;-71
2022/04/07 10:56:57;;;;;;;12.30;5.00;;;;;16.40;95766.40;;;;110750;1251;41234;-69
2022/04/07 10:59:27;;;;;;;11.30;4.10;;;;;16.40;95763.00;;;;110723;1251;41165;-70
2022/04/07 11:02:00;;;;;;;10.50;4.00;;;;;16.30;95757.60;;;;110668;1254;42263;-70
2022/04/07 11:04:36;;;;;;;8.80;3.80;;;;;16.40;95754.80;;;;110663;1252;41620;-69
2022/04/07 11:07:07;;;;;;;11.00;3.30;;;;;16.40;95751.60;;;;110600;1254;42003;-71
2022/04/07 11:09:48;;;;;;;8.20;3.60;;;;;16.40;95751.00;;;;110664;1253;41177;-70
2022/04/07 11:12:18;;;;;;;;;;;;;16.32;95753.40;;;;110667;1251;41623;-70
2022/04/07 11:14:49;;;;;;;8.90;3.60;;;;;16.26;95758.60;;;;110658;1254;42218;-70
2022/04/07 11:17:26;;;;;;;12.00;3.70;;;;;16.26;95764.40;;;;110716;1253;41145;-69
2022/04/07 11:20:16;;;;;;;14.20;5.00;;;;;16.20;95764.40;;;;110692;1253;41279;-70
2022/04/07 11:22:52;;;;;;;10.20;3.90;;;;;16.10;95774.00;;;;110686;1251;41158;-71
2022/04/07 11:25:32;;;;;;;9.00;3.60;;;;;16.02;95771.40;;;;110703;1252;41957;-71
2022/04/07 11:28:25;;;;;;;10.60;3.40;;;;;15.98;95770.60;;;;110749;1251;41157;-70
2022/04/07 11:31:04;;;;;;;9.00;3.20;;;;;16.00;95768.20;;;;110501;1254;41376;-71
2022/04/07 11:33:39;;;;;;;8.50;3.30;;;;;16.00;95774.40;;;;110599;1251;41169;-71
2022/04/07 11:36:12;;;;;;;7.70;3.10;;;;;16.10;95764.20;;;;110581;1254;41918;-70
2022/04/07 11:38:49;;;;;;;10.60;3.30;;;;;16.10;95772.40;;;;110564;1252;41194;-70
2022/04/07 11:41:19;;;;;;;7.80;2.90;;;;;16.16;95769.80;;;;110740;1251;41171;-70
2022/04/07 11:43:52;;;;;;;8.90;3.30;;;;;16.10;95773.80;;;;110736;1251;41265;-70
2022/04/07 11:46:27;;;;;;;21.80;3.70;;;;;16.10;95769.40;;;;110775;1251;41935;-70
2022/04/07 11:49:00;;;;;;;10.70;3.70;;;;;16.20;95768.60;;;;110739;1253;41148;-70
2022/04/07 11:51:34;;;;;;;12.60;3.40;;;;;16.30;95759.80;;;;110753;1253;41179;-70
2022/04/07 11:54:04;;;;;;;7.80;3.40;;;;;16.50;95759.20;;;;110840;1251;41607;-70
2022/04/07 11:56:34;;;;;;;8.80;3.30;;;;;16.80;95755.80;;;;110695;1251;41252;-70
2022/04/07 11:59:08;;;;;;;9.10;3.90;;;;;17.06;95756.00;;;;110705;1251;41160;-69
2022/04/07 12:01:38;;;;;;;10.90;4.00;;;;;17.20;95747.40;;;;110792;1251;41161;-70
2022/04/07 12:04:09;;;;;;;11.10;4.10;;;;;17.40;95746.60;;;;110742;1253;41191;-71
2022/04/07 12:06:46;;;;;;;9.20;3.90;;;;;17.40;95739.60;;;;110684;1254;41144;-71
2022/04/07 12:09:17;;;;;;;9.70;3.70;;;;;17.34;95735.60;;;;110628;1254;41190;-70
2022/04/07 12:11:46;;;;;;;9.90;3.40;;;;;17.30;95740.00;;;;110741;1253;41160;-71
2022/04/07 12:14:16;;;;;;;9.50;3.70;;;;;17.30;95726.60;;;;110691;1253;41595;-71
2022/04/07 12:16:47;;;;;;;10.60;3.20;;;;;17.42;95716.40;;;;110658;1254;41147;-70
2022/04/07 12:19:19;;;;;;;11.90;3.30;;;;;17.60;95706.40;;;;110642;1254;41141;-70
2022/04/07 12:21:58;;;;;;;13.10;3.80;;;;;17.70;95694.00;;;;110686;1251;41187;-70
2022/04/07 12:24:28;;;;;;;11.50;3.60;;;;;17.80;95681.80;;;;110659;1254;41405;-70
2022/04/07 12:27:01;;;;;;;11.00;3.50;;;;;17.70;95679.00;;;;110703;1251;41636;-71